Time;durP1;ratioP1;P1;durP2;ratioP2;P2;SDS_P1;SDS_P2;PMS_P1;PMS_P2;Temp;Humidity;BMP_temperature;BMP_pressure;BME280_temperature;BME280_humidity;BME280_pressure;Samples;Min_cycle;Max_cycle;Signal;HPM_P1;HPM_P2
2022/01/16 00:00:40;;;;;;;19.60;11.00;;;0.90;99.90;;;;;;4981023;28;20184;-93
2022/01/16 00:05:54;;;;;;;16.63;9.53;;;0.90;99.90;;;;;;4983085;28;20204;-93
2022/01/16 00:08:20;;;;;;;18.07;9.87;;;0.90;99.90;;;;;;4981344;28;20619;-93
2022/01/16 00:10:45;;;;;;;21.30;10.60;;;0.80;99.90;;;;;;4982491;28;20183;-93
2022/01/16 00:13:11;;;;;;;19.37;11.20;;;0.80;99.90;;;;;;4981429;28;20219;-93
2022/01/16 00:15:37;;;;;;;19.27;11.53;;;0.80;99.90;;;;;;4981123;28;20522;-94
2022/01/16 00:20:28;;;;;;;19.33;10.17;;;0.80;99.90;;;;;;4979379;28;20616;-94
2022/01/16 00:22:55;;;;;;;19.17;10.83;;;0.80;99.90;;;;;;4978717;28;20699;-94
2022/01/16 00:25:20;;;;;;;19.97;11.07;;;0.80;99.90;;;;;;4978200;28;20207;-94
2022/01/16 00:27:47;;;;;;;16.60;10.03;;;0.80;99.90;;;;;;4977769;28;20244;-92
2022/01/16 00:30:13;;;;;;;18.27;9.37;;;0.80;99.90;;;;;;4978037;28;20184;-93
2022/01/16 00:32:39;;;;;;;18.97;9.73;;;0.80;99.90;;;;;;4978177;28;20176;-92
2022/01/16 00:35:06;;;;;;;16.47;9.67;;;0.80;99.90;;;;;;4978367;28;20716;-93
2022/01/16 00:37:32;;;;;;;20.10;9.03;;;0.80;99.90;;;;;;4978487;28;20177;-93
2022/01/16 00:39:57;;;;;;;20.33;9.77;;;0.80;99.90;;;;;;4977847;28;20677;-93
2022/01/16 00:42:23;;;;;;;16.77;9.37;;;0.80;99.90;;;;;;4978359;28;20207;-93
2022/01/16 00:44:49;;;;;;;20.90;10.37;;;0.80;99.90;;;;;;4977913;28;20531;-92
2022/01/16 00:47:15;;;;;;;21.80;10.73;;;0.80;99.90;;;;;;4977659;28;20215;-93
2022/01/16 00:49:41;;;;;;;21.63;10.90;;;0.80;99.90;;;;;;4978586;28;20177;-92
2022/01/16 00:52:08;;;;;;;22.57;10.93;;;0.80;99.90;;;;;;4978013;28;20274;-93
2022/01/16 00:54:34;;;;;;;17.90;10.90;;;0.80;99.90;;;;;;4978330;28;20201;-93
2022/01/16 00:57:00;;;;;;;15.87;8.97;;;0.80;99.90;;;;;;4978128;28;20247;-93
2022/01/16 00:59:26;;;;;;;16.27;9.90;;;0.80;99.90;;;;;;4977930;28;20271;-93
2022/01/16 01:01:51;;;;;;;18.13;10.00;;;0.80;99.90;;;;;;4978500;28;20207;-93
2022/01/16 01:04:18;;;;;;;23.90;10.70;;;0.70;99.90;;;;;;4978177;28;20175;-92
2022/01/16 01:06:47;;;;;;;16.00;9.63;;;0.70;99.90;;;;;;4977254;28;20205;-95
2022/01/16 01:09:13;;;;;;;18.63;10.23;;;0.70;99.90;;;;;;4977385;28;20182;-94
2022/01/16 01:11:40;;;;;;;17.53;9.73;;;0.70;99.90;;;;;;4977372;28;20196;-95
2022/01/16 01:16:49;;;;;;;18.37;9.97;;;0.60;99.90;;;;;;4978309;28;20212;-92
2022/01/16 01:19:16;;;;;;;17.50;10.03;;;0.60;99.90;;;;;;4977554;28;20556;-94
2022/01/16 01:21:42;;;;;;;21.60;10.60;;;0.60;99.90;;;;;;4977066;28;20218;-94
2022/01/16 01:24:08;;;;;;;17.13;9.80;;;0.60;99.90;;;;;;4977489;28;20286;-93
2022/01/16 01:26:41;;;;;;;27.17;10.07;;;0.60;99.90;;;;;;4977133;28;20231;-93
2022/01/16 01:29:07;;;;;;;17.13;8.97;;;0.60;99.90;;;;;;4977396;28;20173;-94
2022/01/16 01:31:33;;;;;;;15.50;9.33;;;0.70;99.90;;;;;;4976916;28;20246;-94
2022/01/16 01:33:58;;;;;;;15.90;9.83;;;0.70;99.90;;;;;;4977167;28;20183;-93
2022/01/16 01:36:24;;;;;;;15.47;9.40;;;0.70;99.90;;;;;;4976533;28;20187;-93
2022/01/16 01:38:50;;;;;;;14.77;9.13;;;0.60;99.90;;;;;;4977034;28;20190;-94
2022/01/16 01:41:16;;;;;;;15.53;9.80;;;0.60;99.90;;;;;;4976536;28;20256;-93
2022/01/16 01:51:44;;;;;;;18.37;9.67;;;0.60;99.90;;;;;;4977973;28;20218;-93
2022/01/16 01:54:11;;;;;;;18.90;8.70;;;0.60;99.90;;;;;;4977063;28;20214;-93
2022/01/16 01:56:39;;;;;;;16.93;9.40;;;0.60;99.90;;;;;;4976532;28;20199;-93
2022/01/16 01:59:06;;;;;;;15.10;9.07;;;0.60;99.90;;;;;;4976948;28;20188;-93
2022/01/16 02:01:33;;;;;;;15.83;9.27;;;0.60;99.90;;;;;;4976367;28;20210;-93
2022/01/16 02:03:59;;;;;;;18.67;10.20;;;0.60;99.90;;;;;;4976376;28;20275;-94
2022/01/16 02:06:27;;;;;;;16.80;9.53;;;0.60;99.90;;;;;;4976365;28;20212;-93
2022/01/16 02:08:55;;;;;;;17.00;9.57;;;0.50;99.90;;;;;;4976175;28;20210;-94
2022/01/16 02:11:24;;;;;;;16.23;9.23;;;0.60;99.90;;;;;;4976110;28;20196;-94
2022/01/16 02:33:00;;;;;;;15.77;8.70;;;0.60;99.90;;;;;;4996125;28;20594;-91
2022/01/16 02:35:26;;;;;;;15.30;8.87;;;0.60;99.90;;;;;;4989819;28;20169;-91
2022/01/16 02:37:52;;;;;;;16.13;8.10;;;0.60;99.90;;;;;;4976734;28;20215;-90
2022/01/16 02:40:23;;;;;;;14.60;8.50;;;0.60;99.90;;;;;;5001389;28;20203;-91
2022/01/16 02:42:51;;;;;;;12.83;8.93;;;0.60;99.90;;;;;;4989536;28;20304;-90
2022/01/16 02:45:28;;;;;;;14.83;8.67;;;0.60;99.90;;;;;;4992375;28;20190;-90
2022/01/16 02:47:56;;;;;;;15.73;8.40;;;0.50;99.90;;;;;;4989113;28;20574;-90
2022/01/16 02:50:23;;;;;;;14.80;9.50;;;0.50;99.90;;;;;;4984354;28;20204;-91
2022/01/16 02:52:49;;;;;;;15.27;8.70;;;0.50;99.90;;;;;;4998560;28;20211;-90
2022/01/16 02:55:15;;;;;;;14.73;8.63;;;0.50;99.90;;;;;;4994442;28;20182;-90
2022/01/16 02:57:42;;;;;;;17.47;8.53;;;0.50;99.90;;;;;;5002239;28;20195;-91
2022/01/16 03:00:08;;;;;;;15.23;9.63;;;0.50;99.90;;;;;;4990310;28;20187;-90
2022/01/16 03:02:34;;;;;;;13.43;8.57;;;0.50;99.90;;;;;;4989819;28;20206;-90
2022/01/16 03:05:00;;;;;;;13.80;8.47;;;0.50;99.90;;;;;;4977309;28;20177;-90
2022/01/16 03:07:27;;;;;;;14.23;9.20;;;0.50;99.90;;;;;;4992550;28;20179;-91
2022/01/16 03:12:41;;;;;;;12.90;8.60;;;0.40;99.90;;;;;;4990731;28;20584;-91
2022/01/16 03:15:07;;;;;;;15.30;8.57;;;0.30;99.90;;;;;;4988172;28;20179;-91
2022/01/16 03:23:04;;;;;;;13.87;8.77;;;0.40;99.90;;;;;;4993499;28;20242;-94
2022/01/16 03:25:30;;;;;;;12.90;8.80;;;0.40;99.90;;;;;;4990215;28;20176;-94
2022/01/16 03:27:55;;;;;;;15.50;8.40;;;0.40;99.90;;;;;;4989418;28;20217;-94
2022/01/16 03:30:21;;;;;;;15.13;8.53;;;0.30;99.90;;;;;;4993393;28;20210;-94
2022/01/16 03:32:47;;;;;;;16.33;8.70;;;0.30;99.90;;;;;;4997288;28;20309;-94
2022/01/16 03:35:12;;;;;;;13.80;8.50;;;0.30;99.90;;;;;;4993994;28;20551;-94
2022/01/16 03:37:38;;;;;;;14.83;8.27;;;0.30;99.90;;;;;;4986359;28;20184;-94
2022/01/16 03:40:07;;;;;;;11.43;8.10;;;0.30;99.90;;;;;;4995370;28;20219;-94
2022/01/16 03:42:35;;;;;;;14.27;8.77;;;0.30;99.90;;;;;;4974902;28;20212;-94
2022/01/16 03:45:01;;;;;;;12.77;8.23;;;0.20;99.90;;;;;;4991634;28;20289;-94
2022/01/16 03:47:27;;;;;;;12.63;7.83;;;0.20;99.90;;;;;;4992493;28;20198;-93
2022/01/16 03:49:52;;;;;;;11.03;7.67;;;0.20;99.90;;;;;;4989913;28;20577;-94
2022/01/16 03:52:18;;;;;;;13.00;8.13;;;0.20;99.90;;;;;;4994610;28;20180;-94
2022/01/16 03:54:44;;;;;;;14.17;8.20;;;0.10;99.90;;;;;;4993199;28;20183;-94
2022/01/16 03:57:09;;;;;;;13.10;8.10;;;0.00;99.90;;;;;;4994300;28;20196;-94
2022/01/16 03:59:35;;;;;;;11.63;7.40;;;0.00;99.90;;;;;;4994664;28;20184;-93
2022/01/16 04:02:01;;;;;;;14.17;8.40;;;-0.10;99.90;;;;;;4994159;28;20305;-94
2022/01/16 04:04:26;;;;;;;15.97;8.93;;;-0.10;99.90;;;;;;4987273;28;20626;-93
2022/01/16 04:06:52;;;;;;;16.13;9.07;;;0.00;99.90;;;;;;4993329;28;20231;-94
2022/01/16 04:09:18;;;;;;;12.17;8.17;;;0.00;99.90;;;;;;4981476;28;20194;-94
2022/01/16 04:11:50;;;;;;;14.10;8.57;;;0.10;99.90;;;;;;4985270;28;20186;-94
2022/01/16 04:14:22;;;;;;;12.53;8.33;;;0.00;99.90;;;;;;4984227;28;20271;-93
2022/01/16 04:16:48;;;;;;;13.17;8.43;;;0.00;99.90;;;;;;5008438;28;20622;-92
2022/01/16 04:19:14;;;;;;;17.27;9.40;;;-0.10;99.90;;;;;;4997478;28;20188;-91
2022/01/16 04:21:39;;;;;;;13.23;8.90;;;-0.10;99.90;;;;;;4992351;28;20630;-91
2022/01/16 04:24:05;;;;;;;13.80;9.07;;;0.00;99.90;;;;;;4996142;28;20311;-91
2022/01/16 04:26:31;;;;;;;12.57;8.63;;;0.00;99.90;;;;;;4993586;28;20203;-91
2022/01/16 04:28:57;;;;;;;14.70;9.37;;;0.00;99.90;;;;;;4986995;28;20667;-91
2022/01/16 04:31:23;;;;;;;16.10;10.60;;;0.00;99.90;;;;;;4992453;28;20184;-91
2022/01/16 04:33:49;;;;;;;14.10;9.90;;;0.00;99.90;;;;;;4994705;28;20184;-92
2022/01/16 04:36:15;;;;;;;17.53;10.77;;;0.10;99.90;;;;;;4993117;28;20188;-92
2022/01/16 04:38:48;;;;;;;15.37;10.90;;;0.10;99.90;;;;;;4984718;28;20180;-91
2022/01/16 04:43:59;;;;;;;16.17;10.60;;;0.20;99.90;;;;;;4995128;28;20579;-93
2022/01/16 04:46:27;;;;;;;17.57;12.37;;;0.30;99.90;;;;;;4988384;28;20266;-93
2022/01/16 04:48:55;;;;;;;20.37;12.97;;;0.30;99.90;;;;;;4993558;28;20186;-93
2022/01/16 04:51:22;;;;;;;18.93;12.87;;;0.40;99.90;;;;;;4982130;28;20186;-92
2022/01/16 04:53:48;;;;;;;16.90;12.83;;;0.40;99.90;;;;;;4992956;28;20268;-93
2022/01/16 04:56:15;;;;;;;17.17;12.37;;;0.50;99.90;;;;;;4992486;28;20184;-93
2022/01/16 04:58:41;;;;;;;18.40;12.80;;;0.50;99.90;;;;;;4995541;28;20176;-92
2022/01/16 05:01:08;;;;;;;22.63;13.40;;;0.60;99.90;;;;;;4992260;28;20518;-94
2022/01/16 05:03:34;;;;;;;19.90;13.90;;;0.60;99.90;;;;;;4995872;28;20541;-92
2022/01/16 05:06:01;;;;;;;18.67;13.20;;;0.60;99.90;;;;;;4995879;28;20225;-93
2022/01/16 05:08:28;;;;;;;17.87;12.77;;;0.70;99.90;;;;;;4996296;28;20186;-92
2022/01/16 05:10:55;;;;;;;19.87;13.53;;;0.70;99.90;;;;;;4996779;28;20171;-93
2022/01/16 05:18:39;;;;;;;21.03;13.43;;;0.70;99.90;;;;;;4996804;28;20687;-93
2022/01/16 05:21:05;;;;;;;21.63;14.17;;;0.70;99.90;;;;;;4997198;28;20179;-93
2022/01/16 05:23:31;;;;;;;20.07;13.60;;;0.70;99.90;;;;;;4995445;28;20214;-93
2022/01/16 05:25:57;;;;;;;21.60;14.13;;;0.70;99.90;;;;;;5011782;28;20214;-92
2022/01/16 05:28:23;;;;;;;19.47;13.40;;;0.70;99.90;;;;;;4995245;28;20667;-92
2022/01/16 05:30:49;;;;;;;18.20;13.60;;;0.70;99.90;;;;;;4995562;28;20662;-92
2022/01/16 05:33:15;;;;;;;18.33;12.67;;;0.70;99.90;;;;;;4995311;28;20209;-92
2022/01/16 05:35:42;;;;;;;21.27;14.17;;;0.70;99.90;;;;;;4996362;28;20210;-92
2022/01/16 05:38:09;;;;;;;20.93;13.53;;;0.80;99.90;;;;;;4995087;28;20562;-92
2022/01/16 05:40:35;;;;;;;21.07;14.33;;;0.80;99.90;;;;;;4995196;28;20203;-92
2022/01/16 05:43:01;;;;;;;17.53;13.07;;;0.80;99.90;;;;;;4995210;28;20249;-93
2022/01/16 05:45:27;;;;;;;23.40;15.50;;;0.80;99.90;;;;;;4994864;28;20561;-92
2022/01/16 05:47:53;;;;;;;21.93;13.70;;;0.90;99.90;;;;;;4994942;28;20176;-92
2022/01/16 05:50:19;;;;;;;25.67;15.20;;;0.90;99.90;;;;;;4975636;28;20184;-93
2022/01/16 05:52:45;;;;;;;23.90;15.63;;;1.00;99.90;;;;;;4991749;28;20524;-94
2022/01/16 05:55:11;;;;;;;26.97;16.97;;;1.00;99.90;;;;;;4975492;28;20189;-94
2022/01/16 05:57:37;;;;;;;27.80;16.33;;;1.00;99.90;;;;;;4992522;28;20235;-94
2022/01/16 06:00:04;;;;;;;29.27;16.50;;;1.10;99.90;;;;;;5011135;28;20258;-93
2022/01/16 06:02:30;;;;;;;28.50;16.30;;;1.10;99.90;;;;;;4995761;28;20274;-94
2022/01/16 06:04:56;;;;;;;25.03;15.87;;;1.10;99.90;;;;;;4994857;28;20616;-93
2022/01/16 06:07:21;;;;;;;26.37;15.20;;;1.20;99.90;;;;;;4994882;28;20508;-92
2022/01/16 06:09:47;;;;;;;25.73;15.03;;;1.20;99.90;;;;;;4994722;28;20272;-93
2022/01/16 06:12:13;;;;;;;24.83;13.80;;;1.20;99.90;;;;;;4994724;28;20184;-94
2022/01/16 06:14:38;;;;;;;26.30;14.63;;;1.20;99.90;;;;;;4994406;28;20187;-93
2022/01/16 06:17:04;;;;;;;27.13;14.57;;;1.20;99.90;;;;;;4993735;28;20180;-93
2022/01/16 06:19:30;;;;;;;26.63;14.70;;;1.20;99.90;;;;;;4994657;28;20211;-93
2022/01/16 06:21:56;;;;;;;28.30;15.17;;;1.20;99.90;;;;;;4994345;28;20243;-94
2022/01/16 06:24:22;;;;;;;29.33;14.57;;;1.20;99.90;;;;;;4994480;28;20266;-94
2022/01/16 06:26:49;;;;;;;26.57;14.03;;;1.30;99.90;;;;;;4994505;28;20253;-94
2022/01/16 06:29:16;;;;;;;22.60;13.43;;;1.30;99.90;;;;;;4994485;28;20239;-94
2022/01/16 06:31:42;;;;;;;23.17;12.43;;;1.30;99.90;;;;;;4994293;28;20187;-94
2022/01/16 06:34:07;;;;;;;20.27;12.10;;;1.30;99.90;;;;;;4994356;28;20186;-94
2022/01/16 06:36:35;;;;;;;22.63;12.43;;;1.30;99.90;;;;;;4994168;28;20627;-94
2022/01/16 06:39:05;;;;;;;20.50;11.43;;;1.30;99.90;;;;;;4994427;28;20191;-93
2022/01/16 06:41:32;;;;;;;20.97;11.90;;;1.30;99.90;;;;;;4994371;28;20219;-93
2022/01/16 06:43:57;;;;;;;17.60;10.87;;;1.40;99.90;;;;;;4993954;28;20496;-93
2022/01/16 06:46:24;;;;;;;17.67;10.03;;;1.40;99.90;;;;;;4993867;28;20232;-93
2022/01/16 06:48:50;;;;;;;18.13;10.23;;;1.40;99.90;;;;;;4994979;28;20662;-93
2022/01/16 06:51:19;;;;;;;18.03;10.47;;;1.40;99.90;;;;;;4994013;28;20180;-92
2022/01/16 06:53:46;;;;;;;17.10;9.90;;;1.40;99.90;;;;;;4993850;28;20172;-93
2022/01/16 06:56:13;;;;;;;17.13;9.77;;;1.50;99.90;;;;;;4993694;28;20179;-92
2022/01/16 06:58:38;;;;;;;16.70;10.47;;;1.50;99.90;;;;;;4994099;28;20182;-94
2022/01/16 07:01:04;;;;;;;15.27;9.23;;;1.50;99.90;;;;;;4994400;28;20279;-94
2022/01/16 07:03:30;;;;;;;15.27;9.57;;;1.40;99.90;;;;;;4993712;28;20190;-93
2022/01/16 07:05:57;;;;;;;14.50;9.60;;;1.50;99.90;;;;;;4993993;28;20204;-93
2022/01/16 07:08:26;;;;;;;15.57;9.50;;;1.50;99.90;;;;;;4994274;28;20607;-94
2022/01/16 07:10:56;;;;;;;17.27;9.90;;;1.50;99.90;;;;;;4994286;28;20234;-93
2022/01/16 07:13:23;;;;;;;16.63;10.20;;;1.50;99.90;;;;;;4994165;28;20175;-94
2022/01/16 07:15:49;;;;;;;15.03;9.60;;;1.50;99.90;;;;;;5010129;28;20284;-94
2022/01/16 07:18:16;;;;;;;16.53;9.73;;;1.50;99.90;;;;;;4993353;28;20191;-93
2022/01/16 07:20:45;;;;;;;15.30;9.50;;;1.50;99.90;;;;;;4993964;28;20242;-94
2022/01/16 07:23:13;;;;;;;15.40;10.13;;;1.50;99.90;;;;;;4993761;28;20243;-93
2022/01/16 07:25:40;;;;;;;15.60;9.50;;;1.50;99.90;;;;;;5010050;28;20236;-94
2022/01/16 07:28:07;;;;;;;15.17;9.93;;;1.60;99.90;;;;;;4977434;28;20308;-93
2022/01/16 07:30:33;;;;;;;16.80;11.07;;;1.60;99.90;;;;;;4978217;28;20184;-94
2022/01/16 07:32:59;;;;;;;16.60;10.47;;;1.60;99.90;;;;;;4977938;28;20296;-93
2022/01/16 07:35:25;;;;;;;16.73;10.50;;;1.60;99.90;;;;;;4978163;28;20262;-94
2022/01/16 07:37:52;;;;;;;15.10;9.97;;;1.60;99.90;;;;;;4977952;28;20187;-93
2022/01/16 07:40:20;;;;;;;14.63;10.43;;;1.70;99.90;;;;;;4978135;28;20202;-94
2022/01/16 07:42:46;;;;;;;17.23;10.93;;;1.70;99.90;;;;;;4977992;28;20220;-95
2022/01/16 07:45:13;;;;;;;20.37;11.97;;;1.70;99.90;;;;;;4977988;28;20185;-94
2022/01/16 07:47:39;;;;;;;17.67;11.73;;;1.70;99.90;;;;;;4977619;28;20302;-93
2022/01/16 07:50:06;;;;;;;15.80;11.57;;;1.70;99.90;;;;;;4978949;28;20611;-94
2022/01/16 07:52:32;;;;;;;18.17;12.00;;;1.80;99.90;;;;;;4977746;28;20206;-94
2022/01/16 07:54:57;;;;;;;18.53;12.17;;;1.80;99.90;;;;;;4977781;28;20604;-94
2022/01/16 07:57:23;;;;;;;17.00;12.17;;;1.80;99.90;;;;;;4991700;28;20189;-93
2022/01/16 07:59:50;;;;;;;16.20;11.87;;;1.80;99.90;;;;;;4997245;28;20181;-93
2022/01/16 08:02:16;;;;;;;16.87;12.10;;;1.80;99.90;;;;;;4996813;28;20262;-94
2022/01/16 08:04:42;;;;;;;16.80;11.97;;;1.80;99.90;;;;;;4997144;28;20263;-94
2022/01/16 08:07:09;;;;;;;17.40;12.50;;;1.80;99.90;;;;;;4996863;28;20278;-93
2022/01/16 08:09:36;;;;;;;19.50;13.00;;;1.80;99.90;;;;;;4997032;28;20271;-93
2022/01/16 08:12:03;;;;;;;17.27;11.87;;;1.80;99.90;;;;;;4996754;28;20515;-93
2022/01/16 08:14:28;;;;;;;16.43;11.97;;;1.80;99.90;;;;;;4996953;28;20214;-93
2022/01/16 08:16:56;;;;;;;17.47;12.83;;;1.80;99.90;;;;;;4996655;28;20207;-94
2022/01/16 08:19:22;;;;;;;18.43;12.47;;;1.80;99.90;;;;;;4996589;28;20188;-93
2022/01/16 08:21:48;;;;;;;16.73;12.27;;;1.80;99.90;;;;;;4996837;28;20207;-93
2022/01/16 08:24:14;;;;;;;18.97;12.73;;;1.80;99.90;;;;;;4996822;28;20172;-93
2022/01/16 08:26:39;;;;;;;17.90;11.77;;;1.80;99.90;;;;;;4996101;28;20523;-94
2022/01/16 08:29:05;;;;;;;16.90;12.20;;;1.80;99.90;;;;;;4996023;28;20223;-92
2022/01/16 08:31:31;;;;;;;17.47;12.27;;;1.90;99.90;;;;;;4996616;28;20211;-93
2022/01/16 08:33:56;;;;;;;20.90;12.63;;;1.90;99.90;;;;;;4996514;28;20239;-93
2022/01/16 08:36:22;;;;;;;22.37;12.90;;;1.90;99.90;;;;;;4996114;28;20183;-93
2022/01/16 08:38:48;;;;;;;20.00;13.30;;;1.90;99.90;;;;;;5011211;28;20272;-93
2022/01/16 08:41:18;;;;;;;19.37;13.23;;;1.90;99.90;;;;;;4995930;28;20215;-94
2022/01/16 08:43:46;;;;;;;21.53;13.90;;;1.90;99.90;;;;;;5012783;28;20169;-93
2022/01/16 08:46:13;;;;;;;24.57;14.70;;;1.90;99.90;;;;;;5012572;28;20180;-94
2022/01/16 08:48:39;;;;;;;26.73;16.20;;;1.90;99.90;;;;;;5009959;28;20187;-93
2022/01/16 08:51:05;;;;;;;27.93;16.47;;;1.90;99.90;;;;;;4997235;28;20524;-94
2022/01/16 08:53:31;;;;;;;27.43;16.23;;;2.00;99.90;;;;;;4996044;28;20178;-94
2022/01/16 08:55:58;;;;;;;27.03;16.23;;;2.00;99.90;;;;;;4995750;28;20183;-93
2022/01/16 08:58:24;;;;;;;33.53;19.03;;;2.00;99.90;;;;;;4996140;28;20176;-93
2022/01/16 09:00:50;;;;;;;32.60;18.83;;;2.00;99.90;;;;;;4995172;28;20188;-92
2022/01/16 09:03:17;;;;;;;34.37;18.13;;;2.00;99.90;;;;;;4985301;28;20303;-94
2022/01/16 09:05:44;;;;;;;34.17;19.63;;;2.10;99.90;;;;;;4992903;28;20182;-94
2022/01/16 09:08:10;;;;;;;36.77;19.87;;;2.10;99.90;;;;;;4996039;28;20180;-93
2022/01/16 09:10:37;;;;;;;37.53;20.47;;;2.10;99.90;;;;;;4995093;28;20272;-94
2022/01/16 09:13:03;;;;;;;37.60;20.87;;;2.10;99.90;;;;;;4992828;28;20184;-93
2022/01/16 09:15:29;;;;;;;40.50;20.37;;;2.20;99.90;;;;;;4993081;28;20186;-93
2022/01/16 09:17:55;;;;;;;37.57;19.60;;;2.20;99.90;;;;;;5009480;28;20176;-93
2022/01/16 09:20:21;;;;;;;39.13;21.23;;;2.20;99.90;;;;;;4995412;28;20218;-94
2022/01/16 09:22:48;;;;;;;39.03;21.37;;;2.20;99.90;;;;;;5012129;28;20314;-93
2022/01/16 09:25:14;;;;;;;36.70;20.90;;;2.20;99.90;;;;;;4992496;28;20172;-94
2022/01/16 09:27:40;;;;;;;41.27;21.73;;;2.20;99.90;;;;;;5008085;28;20716;-94
2022/01/16 09:30:09;;;;;;;43.17;23.47;;;2.30;99.90;;;;;;4995095;28;20183;-94
2022/01/16 09:32:36;;;;;;;44.33;24.10;;;2.30;99.90;;;;;;4994773;28;20187;-94
2022/01/16 09:35:02;;;;;;;50.63;25.67;;;2.30;99.90;;;;;;5010799;28;20176;-93
2022/01/16 09:37:28;;;;;;;48.60;25.00;;;2.30;99.90;;;;;;4995203;28;20650;-94
2022/01/16 09:39:54;;;;;;;50.40;26.13;;;2.30;99.90;;;;;;4994231;28;20182;-93
2022/01/16 09:42:23;;;;;;;50.60;26.43;;;2.30;99.90;;;;;;4990280;28;20636;-93
2022/01/16 09:44:49;;;;;;;55.60;27.33;;;2.30;99.90;;;;;;4997980;28;20650;-93
2022/01/16 09:47:15;;;;;;;53.13;27.67;;;2.30;99.90;;;;;;4994311;28;20178;-93
2022/01/16 09:49:40;;;;;;;57.50;29.00;;;2.30;99.90;;;;;;5011101;28;20234;-93
2022/01/16 09:52:07;;;;;;;54.37;28.10;;;2.30;99.90;;;;;;4994717;28;20559;-93
2022/01/16 09:54:33;;;;;;;55.83;28.17;;;2.30;99.90;;;;;;4987174;28;20178;-94
2022/01/16 09:56:58;;;;;;;55.53;27.80;;;2.30;99.90;;;;;;5009138;28;20234;-94
2022/01/16 09:59:24;;;;;;;59.30;29.37;;;2.30;99.90;;;;;;5010072;28;20184;-94
2022/01/16 10:01:51;;;;;;;55.30;28.03;;;2.40;99.90;;;;;;4994211;28;20231;-92
2022/01/16 10:04:37;;;;;;;54.80;28.47;;;2.40;99.90;;;;;;5010364;28;20175;-94
2022/01/16 10:07:12;;;;;;;54.70;28.47;;;2.40;99.90;;;;;;4994784;28;20183;-93
2022/01/16 10:09:40;;;;;;;51.03;27.77;;;2.40;99.90;;;;;;4995462;28;20171;-94
2022/01/16 10:12:15;;;;;;;48.70;27.97;;;2.40;99.90;;;;;;4994310;28;20202;-93
2022/01/16 10:15:01;;;;;;;46.80;27.23;;;2.50;99.90;;;;;;4986410;28;20182;-92
2022/01/16 10:17:26;;;;;;;46.97;27.07;;;2.50;99.90;;;;;;4986526;28;20184;-93
2022/01/16 10:20:06;;;;;;;51.17;29.43;;;2.50;99.90;;;;;;5010481;28;20494;-93
2022/01/16 10:22:46;;;;;;;51.23;28.37;;;2.50;99.90;;;;;;4993559;28;20235;-93
2022/01/16 10:25:15;;;;;;;50.20;27.00;;;2.50;99.90;;;;;;4993637;28;20181;-94
2022/01/16 10:27:44;;;;;;;49.07;27.47;;;2.50;99.90;;;;;;4992944;28;20254;-92
2022/01/16 10:30:14;;;;;;;54.23;28.40;;;2.60;99.90;;;;;;4994229;28;20183;-94
2022/01/16 10:32:46;;;;;;;51.30;28.77;;;2.60;99.90;;;;;;4983958;28;20188;-93
2022/01/16 10:35:19;;;;;;;48.20;29.03;;;2.60;99.90;;;;;;5010006;28;20187;-93
2022/01/16 10:37:48;;;;;;;50.40;29.43;;;2.60;99.90;;;;;;4993757;28;20184;-93
2022/01/16 10:40:24;;;;;;;50.93;28.90;;;2.60;99.90;;;;;;4994540;28;20206;-93
2022/01/16 10:42:53;;;;;;;53.30;28.87;;;2.60;99.90;;;;;;4993385;28;20222;-93
2022/01/16 10:45:24;;;;;;;49.33;28.43;;;2.70;99.90;;;;;;4991122;28;20658;-92
2022/01/16 10:47:54;;;;;;;50.33;29.67;;;2.70;99.90;;;;;;4990711;28;20172;-92
2022/01/16 10:50:22;;;;;;;50.93;29.13;;;2.70;99.90;;;;;;5004682;28;20246;-93
2022/01/16 10:52:57;;;;;;;50.00;29.43;;;2.70;99.90;;;;;;4978010;28;20187;-93
2022/01/16 10:55:46;;;;;;;55.47;28.40;;;2.70;99.90;;;;;;4985046;28;20187;-93
2022/01/16 10:58:15;;;;;;;52.20;30.77;;;2.70;99.90;;;;;;4975938;28;20180;-92
2022/01/16 11:00:51;;;;;;;58.37;30.23;;;2.70;99.90;;;;;;4995009;28;20234;-93
2022/01/16 11:03:18;;;;;;;59.67;31.43;;;2.70;99.90;;;;;;4988590;28;20687;-93
2022/01/16 11:05:45;;;;;;;56.97;31.60;;;2.70;99.90;;;;;;5009622;28;20522;-93
2022/01/16 11:08:13;;;;;;;59.67;31.63;;;2.70;99.90;;;;;;4993667;28;20191;-93
2022/01/16 11:10:56;;;;;;;60.10;31.20;;;2.70;99.90;;;;;;4993791;28;20581;-93
2022/01/16 11:13:29;;;;;;;63.40;33.60;;;2.70;99.90;;;;;;5010355;28;20198;-93
2022/01/16 11:15:58;;;;;;;67.17;34.77;;;2.70;99.90;;;;;;5009467;28;20179;-93
2022/01/16 11:18:25;;;;;;;68.30;35.83;;;2.70;99.90;;;;;;4992834;28;20176;-93
2022/01/16 11:21:18;;;;;;;69.53;35.87;;;2.70;99.90;;;;;;4993783;28;20250;-93
2022/01/16 11:26:09;;;;;;;67.80;33.67;;;2.80;99.90;;;;;;4994226;28;20242;-93
2022/01/16 11:28:35;;;;;;;68.43;33.60;;;2.80;99.90;;;;;;4993545;28;20235;-92
2022/01/16 11:31:07;;;;;;;68.50;34.30;;;2.80;99.90;;;;;;5010211;28;20649;-93
2022/01/16 11:33:34;;;;;;;69.93;34.70;;;2.80;99.90;;;;;;5009935;28;20183;-92
2022/01/16 11:36:08;;;;;;;69.47;35.20;;;2.80;99.90;;;;;;5009822;28;20206;-92
2022/01/16 11:38:41;;;;;;;72.93;34.90;;;2.80;99.90;;;;;;4993458;28;20183;-93
2022/01/16 11:41:15;;;;;;;61.33;34.50;;;2.90;99.90;;;;;;5009928;28;20207;-92
2022/01/16 11:43:49;;;;;;;70.03;34.97;;;2.90;99.90;;;;;;5010175;28;20196;-93
2022/01/16 11:46:17;;;;;;;71.33;35.13;;;2.90;99.90;;;;;;5010049;28;20169;-91
2022/01/16 11:48:47;;;;;;;67.43;34.43;;;2.90;99.90;;;;;;5009138;28;20611;-93
2022/01/16 11:51:40;;;;;;;64.70;34.00;;;3.00;99.90;;;;;;4993451;28;20183;-93
2022/01/16 11:54:24;;;;;;;73.13;36.10;;;3.00;99.90;;;;;;4993715;28;20251;-92
2022/01/16 11:57:07;;;;;;;68.93;35.43;;;3.00;99.90;;;;;;4993043;28;20520;-92
2022/01/16 11:59:33;;;;;;;68.23;35.83;;;3.00;99.90;;;;;;4993381;28;20226;-93
2022/01/16 12:02:08;;;;;;;71.50;34.20;;;3.10;99.90;;;;;;4990022;28;20200;-92
2022/01/16 12:04:33;;;;;;;70.07;35.47;;;3.10;99.90;;;;;;4990102;28;20176;-93
2022/01/16 12:07:12;;;;;;;63.67;32.73;;;3.10;99.90;;;;;;5007362;28;20243;-92
2022/01/16 12:09:40;;;;;;;67.70;33.83;;;3.10;99.90;;;;;;5009619;28;20176;-92
2022/01/16 12:12:12;;;;;;;65.57;34.97;;;3.10;99.90;;;;;;5003406;28;20235;-92
2022/01/16 12:14:48;;;;;;;66.80;33.50;;;3.20;99.90;;;;;;4992094;28;20183;-92
2022/01/16 12:17:27;;;;;;;63.50;33.07;;;3.20;99.90;;;;;;4997926;28;20481;-91
2022/01/16 12:19:53;;;;;;;65.17;35.23;;;3.20;99.90;;;;;;4996643;28;20179;-91
2022/01/16 12:22:46;;;;;;;66.07;34.07;;;3.10;99.90;;;;;;4996495;28;20222;-92
2022/01/16 12:25:28;;;;;;;66.23;33.57;;;3.20;99.90;;;;;;4993647;28;20181;-92
2022/01/16 12:27:58;;;;;;;68.57;34.87;;;3.20;99.90;;;;;;5011367;28;20236;-93
2022/01/16 12:30:25;;;;;;;70.23;35.43;;;3.20;99.90;;;;;;4996224;28;20271;-93
2022/01/16 12:32:57;;;;;;;62.77;32.97;;;3.20;99.90;;;;;;5012133;28;20184;-92
2022/01/16 12:35:41;;;;;;;64.80;31.93;;;3.20;99.90;;;;;;4996650;28;20176;-93
2022/01/16 12:38:10;;;;;;;65.10;33.00;;;3.20;99.90;;;;;;4996249;28;20637;-94
2022/01/16 12:40:43;;;;;;;63.63;32.40;;;3.30;99.90;;;;;;4978921;28;20200;-93
2022/01/16 12:43:16;;;;;;;64.17;33.57;;;3.30;99.90;;;;;;5012383;28;20243;-93
2022/01/16 12:45:43;;;;;;;64.43;34.37;;;3.30;99.90;;;;;;5012702;28;20183;-93
2022/01/16 12:48:10;;;;;;;62.87;33.40;;;3.30;99.90;;;;;;5011352;28;20270;-93
2022/01/16 12:50:37;;;;;;;66.20;33.33;;;3.30;99.90;;;;;;4995983;28;20180;-92
2022/01/16 12:53:06;;;;;;;64.57;33.00;;;3.30;99.90;;;;;;4985973;28;20220;-92
2022/01/16 12:55:34;;;;;;;61.67;33.37;;;3.40;99.90;;;;;;4992833;28;20184;-93
2022/01/16 12:58:26;;;;;;;63.03;32.57;;;3.40;99.90;;;;;;5011655;28;20201;-93
2022/01/16 13:01:03;;;;;;;57.17;30.77;;;3.50;99.90;;;;;;4993953;28;20528;-92
2022/01/16 13:03:31;;;;;;;61.67;32.83;;;3.50;99.90;;;;;;4994674;28;20271;-93
2022/01/16 13:06:19;;;;;;;62.77;32.00;;;3.50;99.90;;;;;;4992599;28;20271;-93
2022/01/16 13:08:53;;;;;;;61.00;32.40;;;3.60;99.90;;;;;;5006088;28;20532;-92
2022/01/16 13:11:20;;;;;;;59.43;31.33;;;3.60;99.90;;;;;;4995723;28;20175;-93
2022/01/16 13:13:47;;;;;;;61.90;31.37;;;3.60;99.90;;;;;;4995906;28;20278;-92
2022/01/16 13:16:22;;;;;;;64.47;32.13;;;3.60;99.90;;;;;;4995702;28;20234;-92
2022/01/16 13:19:16;;;;;;;61.77;31.63;;;3.60;99.90;;;;;;4995479;28;20190;-93
2022/01/16 13:21:47;;;;;;;64.27;30.83;;;3.60;99.90;;;;;;4995225;28;20226;-93
2022/01/16 13:24:24;;;;;;;61.03;32.07;;;3.60;99.90;;;;;;5010962;28;20184;-92
2022/01/16 13:26:49;;;;;;;65.23;32.03;;;3.60;99.90;;;;;;5011859;28;20215;-92
2022/01/16 13:29:18;;;;;;;61.23;32.17;;;3.60;99.90;;;;;;4995611;28;20242;-93
2022/01/16 13:31:44;;;;;;;65.27;32.87;;;3.60;99.90;;;;;;4995730;28;20327;-92
2022/01/16 13:34:32;;;;;;;62.20;31.87;;;3.70;99.90;;;;;;4995501;28;20591;-93
2022/01/16 13:36:58;;;;;;;56.07;30.77;;;3.70;99.90;;;;;;4996014;28;20603;-94
2022/01/16 13:39:35;;;;;;;55.87;29.20;;;3.70;99.90;;;;;;4989586;28;20184;-92